createdAt,value
2023-02-25T07:13:50.061Z,4.19
2023-02-25T07:14:52.577Z,4.25
2023-02-25T07:15:54.801Z,4.34
2023-02-25T07:16:57.047Z,4.41
2023-02-25T07:17:59.923Z,4.35
2023-02-25T07:19:02.448Z,4.41
2023-02-25T07:20:05.040Z,4.49
2023-02-25T07:22:24.135Z,4.52
2023-02-25T07:23:26.676Z,4.50
2023-02-25T07:24:29.036Z,4.55
2023-02-25T07:25:32.129Z,4.64
2023-02-25T07:26:34.938Z,4.62
2023-02-25T07:27:42.413Z,4.66
2023-02-25T07:28:48.232Z,4.80
2023-02-25T07:29:50.511Z,4.88
2023-02-25T07:30:52.826Z,5.00
2023-02-25T07:31:55.355Z,5.01
2023-02-25T07:32:57.769Z,5.06
2023-02-25T07:34:03.468Z,4.87
2023-02-25T07:35:06.285Z,4.76
2023-02-25T07:36:09.994Z,5.03
2023-02-25T07:37:12.743Z,5.01
2023-02-25T07:38:14.918Z,4.84
2023-02-25T07:39:17.459Z,4.95
2023-02-25T07:40:20.033Z,5.03
2023-02-25T07:41:23.298Z,5.13
2023-02-25T07:42:29.028Z,5.19
2023-02-25T07:43:34.865Z,5.28
2023-02-25T07:44:37.671Z,5.34
2023-02-25T07:45:40.541Z,5.47
2023-02-25T07:46:42.816Z,5.42
2023-02-25T07:47:46.218Z,5.27
2023-02-25T07:48:48.889Z,5.23
2023-02-25T07:49:51.988Z,5.37
2023-02-25T07:50:55.755Z,5.40
2023-02-25T07:51:58.230Z,5.31
2023-02-25T07:53:01.180Z,5.08
2023-02-25T07:54:03.778Z,5.28
2023-02-25T07:55:07.224Z,5.35
2023-02-25T07:56:10.171Z,5.07
2023-02-25T07:57:12.719Z,5.10
2023-02-25T07:58:18.683Z,4.86
2023-02-25T07:59:22.342Z,5.05
2023-02-25T08:00:25.048Z,4.90
2023-02-25T08:01:32.079Z,4.85
2023-02-25T08:02:34.677Z,4.89
2023-02-25T08:03:37.853Z,4.68
2023-02-25T08:04:40.673Z,4.88
2023-02-25T08:05:43.104Z,5.16
2023-02-25T08:06:47.058Z,5.04
2023-02-25T08:07:49.739Z,4.92
2023-02-25T08:08:52.689Z,4.78
2023-02-25T08:09:55.061Z,4.81
2023-02-25T08:10:57.438Z,4.86
2023-02-25T08:11:59.897Z,5.09
2023-02-25T08:13:02.457Z,5.46
2023-02-25T08:14:05.863Z,5.44
2023-02-25T08:15:08.421Z,5.56
2023-02-25T08:16:14.007Z,5.55
2023-02-25T08:17:16.680Z,5.46
2023-02-25T08:18:19.092Z,5.43
2023-02-25T08:19:21.582Z,5.57
2023-02-25T08:20:24.314Z,5.56
2023-02-25T08:21:26.981Z,5.57
2023-02-25T08:22:29.352Z,5.53
2023-02-25T08:23:31.726Z,5.67
2023-02-25T08:24:34.052Z,5.79
2023-02-25T08:25:36.327Z,5.58
2023-02-25T08:26:38.749Z,5.92
2023-02-25T08:27:41.059Z,5.82
2023-02-25T08:28:45.010Z,5.48
2023-02-25T08:29:47.324Z,5.44
2023-02-25T08:30:50.749Z,5.62
2023-02-25T08:31:53.173Z,5.65
2023-02-25T08:32:57.433Z,5.86
2023-02-25T08:33:59.935Z,6.10
2023-02-25T08:35:03.338Z,6.19
2023-02-25T08:36:11.857Z,6.10
2023-02-25T08:37:14.191Z,6.14
2023-02-25T08:38:16.759Z,5.85
2023-02-25T08:39:19.353Z,6.10
2023-02-25T08:40:21.750Z,6.02
2023-02-25T08:41:26.023Z,6.14
2023-02-25T08:42:28.736Z,5.78
2023-02-25T08:43:32.144Z,5.65
2023-02-25T08:44:34.514Z,5.53
2023-02-25T08:45:40.497Z,5.68
2023-02-25T08:46:45.961Z,5.72
2023-02-25T08:47:48.624Z,5.60
2023-02-25T08:48:52.562Z,5.70
2023-02-25T08:49:54.761Z,5.57
2023-02-25T08:51:02.107Z,5.62
2023-02-25T08:52:04.328Z,5.74
2023-02-25T08:53:06.682Z,5.94
2023-02-25T08:54:13.379Z,5.81
2023-02-25T08:55:16.431Z,5.59
2023-02-25T08:56:19.020Z,5.34
2023-02-25T08:57:21.276Z,5.47
2023-02-25T08:58:23.470Z,5.47
2023-02-25T08:59:25.791Z,5.77
2023-02-25T09:00:28.967Z,5.51
2023-02-25T09:01:44.702Z,5.96
2023-02-25T09:02:48.086Z,5.81
2023-02-25T09:03:53.723Z,5.77
2023-02-25T09:04:56.882Z,6.04
2023-02-25T09:05:59.145Z,6.13
2023-02-25T09:07:02.096Z,5.87
2023-02-25T09:08:04.911Z,5.96
2023-02-25T09:09:07.243Z,6.04
2023-02-25T09:10:10.240Z,6.00
2023-02-25T09:11:12.650Z,6.04
2023-02-25T09:12:15.123Z,6.37
2023-02-25T09:13:17.608Z,6.39
2023-02-25T09:14:21.581Z,6.58
2023-02-25T09:15:24.752Z,6.40
2023-02-25T09:16:31.136Z,6.56
2023-02-25T09:17:33.517Z,6.09
2023-02-25T09:18:35.976Z,5.98
2023-02-25T09:19:38.936Z,6.25
2023-02-25T09:20:41.269Z,5.99
2023-02-25T09:21:45.004Z,6.30
2023-02-25T09:22:47.200Z,6.20
2023-02-25T09:23:52.517Z,6.12
2023-02-25T09:24:55.408Z,6.21
2023-02-25T09:26:02.829Z,6.20
2023-02-25T09:27:07.808Z,6.30
2023-02-25T09:28:10.502Z,6.46
2023-02-25T09:29:12.713Z,6.44
2023-02-25T09:30:15.666Z,6.48
2023-02-25T09:31:18.656Z,6.71
2023-02-25T09:32:21.862Z,6.58
2023-02-25T09:33:25.499Z,6.55
2023-02-25T09:34:27.699Z,6.53
2023-02-25T09:35:30.030Z,6.50
2023-02-25T09:36:32.848Z,6.27
2023-02-25T09:37:35.205Z,6.30
2023-02-25T09:38:39.461Z,6.08
2023-02-25T09:39:43.064Z,5.82
2023-02-25T09:40:47.160Z,5.79
2023-02-25T09:41:57.547Z,6.19
2023-02-25T09:43:20.004Z,6.18
2023-02-25T09:44:27.540Z,6.41
2023-02-25T09:45:34.305Z,6.53
2023-02-25T09:46:41.421Z,6.43
2023-02-25T09:47:55.268Z,6.58
2023-02-25T09:49:05.764Z,6.57
2023-02-25T09:50:23.714Z,6.61
2023-02-25T09:51:36.769Z,6.82
2023-02-25T09:52:45.082Z,6.52
2023-02-25T09:53:56.836Z,6.38
2023-02-25T09:55:20.792Z,6.59
2023-02-25T09:56:26.765Z,6.72
2023-02-25T09:57:31.617Z,6.82
2023-02-25T09:58:41.458Z,6.90
2023-02-25T09:59:43.666Z,6.56
2023-02-25T10:00:58.317Z,6.45
2023-02-25T10:02:02.933Z,6.52
2023-02-25T10:03:35.044Z,6.61
2023-02-25T10:04:51.924Z,6.28
2023-02-25T10:06:03.587Z,6.49
2023-02-25T10:07:16.761Z,6.43
2023-02-25T10:08:25.674Z,6.62
2023-02-25T10:09:46.291Z,6.92
2023-02-25T10:11:06.072Z,6.87
2023-02-25T10:12:13.290Z,6.68
2023-02-25T10:13:48.421Z,6.74
2023-02-25T10:15:34.972Z,6.78
2023-02-25T10:16:54.457Z,6.66
2023-02-25T10:18:22.895Z,6.42
2023-02-25T10:19:55.933Z,6.57
2023-02-25T10:21:17.266Z,6.73
2023-02-25T10:22:31.997Z,6.37
2023-02-25T10:24:11.158Z,6.28
2023-02-25T10:25:20.390Z,6.48
2023-02-25T10:26:25.805Z,6.78
2023-02-25T10:27:37.761Z,6.70
2023-02-25T10:28:43.125Z,6.67
2023-02-25T10:29:52.633Z,6.41
2023-02-25T10:31:05.955Z,6.43
2023-02-25T10:32:22.537Z,6.60
2023-02-25T10:33:27.943Z,6.35
2023-02-25T10:34:32.918Z,6.58
2023-02-25T10:35:39.239Z,6.45
2023-02-25T10:36:45.748Z,6.42
2023-02-25T10:37:48.112Z,6.41
2023-02-25T10:38:53.054Z,6.76
2023-02-25T10:39:58.749Z,6.48
2023-02-25T10:41:01.272Z,6.61
2023-02-25T10:42:03.625Z,6.15
2023-02-25T10:43:24.448Z,6.17
2023-02-25T10:44:26.658Z,6.38
2023-02-25T10:45:32.326Z,6.41
2023-02-25T10:46:51.284Z,6.69
2023-02-25T10:48:12.288Z,6.88
2023-02-25T10:49:23.194Z,6.60
2023-02-25T10:50:44.352Z,6.52
2023-02-25T10:52:02.926Z,6.74
2023-02-25T10:53:14.080Z,6.65
2023-02-25T10:54:16.289Z,6.87
2023-02-25T10:55:41.117Z,6.91
2023-02-25T10:56:46.052Z,7.01
2023-02-25T10:57:50.364Z,6.78
2023-02-25T10:59:05.913Z,6.57
2023-02-25T11:00:32.345Z,6.76
2023-02-25T11:01:39.294Z,6.65
2023-02-25T11:02:43.227Z,6.78
2023-02-25T11:03:59.559Z,6.67
2023-02-25T11:05:01.825Z,6.67
2023-02-25T11:06:22.132Z,6.92
2023-02-25T11:07:35.549Z,6.79
2023-02-25T11:08:37.736Z,6.88
2023-02-25T11:09:40.116Z,6.76
2023-02-25T11:10:42.293Z,6.88
2023-02-25T11:12:21.062Z,6.94
2023-02-25T11:13:28.893Z,6.93
2023-02-25T11:14:33.036Z,6.95
2023-02-25T11:15:45.117Z,6.77
2023-02-25T11:16:48.326Z,6.87
2023-02-25T11:17:51.737Z,6.65
2023-02-25T11:18:58.426Z,6.80
2023-02-25T11:20:02.292Z,6.74
2023-02-25T11:21:09.939Z,6.65
2023-02-25T11:22:28.262Z,6.64
2023-02-25T11:24:02.025Z,6.64
2023-02-25T11:25:15.825Z,6.61
2023-02-25T11:26:41.460Z,6.49
2023-02-25T11:27:49.812Z,6.42
2023-02-25T11:28:52.089Z,6.41
2023-02-25T11:29:59.892Z,6.24
2023-02-25T11:31:16.006Z,6.19
2023-02-25T11:32:21.513Z,6.22
2023-02-25T11:33:34.070Z,6.22
2023-02-25T11:34:43.730Z,6.24
2023-02-25T11:35:46.240Z,6.35
2023-02-25T11:36:50.940Z,6.50
2023-02-25T11:37:55.434Z,6.54
2023-02-25T11:39:21.520Z,6.59
2023-02-25T11:40:27.885Z,6.61
2023-02-25T11:41:34.230Z,6.29
2023-02-25T11:42:37.471Z,6.41
2023-02-25T11:43:42.196Z,6.31
2023-02-25T11:44:45.588Z,6.19
2023-02-25T11:45:53.519Z,6.09
2023-02-25T11:47:14.447Z,6.02
2023-02-25T11:48:21.143Z,5.96
2023-02-25T11:49:46.305Z,5.76
2023-02-25T11:50:56.841Z,5.84
2023-02-25T11:52:36.649Z,5.62
2023-02-25T11:53:39.057Z,5.72
2023-02-25T11:55:20.495Z,5.56
2023-02-25T11:56:32.325Z,5.50
2023-02-25T11:57:44.142Z,5.47
2023-02-25T11:59:10.681Z,5.44
2023-02-25T12:00:55.440Z,5.53
2023-02-25T12:02:29.437Z,5.43
2023-02-25T12:03:55.014Z,5.55
2023-02-25T12:05:07.330Z,5.66
2023-02-25T12:06:58.392Z,5.80
2023-02-25T12:08:13.381Z,5.74
2023-02-25T12:09:50.929Z,5.79
2023-02-25T12:11:12.445Z,5.89
2023-02-25T12:12:37.932Z,5.93
2023-02-25T12:14:08.677Z,5.80
2023-02-25T12:15:23.618Z,5.68
2023-02-25T12:16:38.310Z,5.78
2023-02-25T12:18:14.736Z,5.66
2023-02-25T12:19:38.686Z,5.63
2023-02-25T12:20:52.628Z,5.62
2023-02-25T12:22:29.220Z,5.53
2023-02-25T12:23:43.452Z,5.71
2023-02-25T12:25:03.935Z,5.78
2023-02-25T12:26:25.118Z,5.71
2023-02-25T12:27:52.388Z,6.00
2023-02-25T12:29:17.383Z,5.87
2023-02-25T12:30:38.701Z,6.01
2023-02-25T12:31:56.912Z,6.18
2023-02-25T12:33:53.304Z,6.16
2023-02-25T12:35:18.440Z,6.48
2023-02-25T12:36:31.781Z,6.39
2023-02-25T12:37:34.361Z,6.35
2023-02-25T12:39:00.991Z,6.77
2023-02-25T12:40:36.317Z,6.68
2023-02-25T12:41:59.570Z,6.01
2023-02-25T12:43:30.788Z,5.93
2023-02-25T12:44:44.211Z,6.01
2023-02-25T12:46:03.591Z,6.22
2023-02-25T12:47:42.486Z,6.58
2023-02-25T12:49:09.469Z,6.57
2023-02-25T12:50:35.567Z,6.29
2023-02-25T12:51:59.347Z,6.40
2023-02-25T12:53:47.132Z,6.55
2023-02-25T12:55:17.331Z,6.68
2023-02-25T12:56:41.191Z,6.06
2023-02-25T12:57:50.756Z,6.23
2023-02-25T12:59:23.243Z,6.53
2023-02-25T13:00:44.237Z,6.45
2023-02-25T13:02:23.138Z,6.62
2023-02-25T13:03:58.040Z,6.38
2023-02-25T13:05:41.106Z,6.64
2023-02-25T13:07:14.764Z,6.87
2023-02-25T13:08:49.270Z,7.14
2023-02-25T13:10:23.843Z,7.04
2023-02-25T13:12:09.476Z,7.19
2023-02-25T13:13:24.421Z,7.46
2023-02-25T13:14:54.479Z,7.52
2023-02-25T13:16:15.216Z,7.72
2023-02-25T13:17:24.759Z,7.68
2023-02-25T13:18:45.305Z,7.79
2023-02-25T13:20:28.927Z,7.54
2023-02-25T13:21:53.657Z,7.91
2023-02-25T13:23:37.209Z,7.88
2023-02-25T13:24:48.716Z,8.08
2023-02-25T13:26:12.137Z,8.40
2023-02-25T13:27:37.541Z,8.36
2023-02-25T13:28:50.035Z,8.38
2023-02-25T13:30:12.013Z,8.14
2023-02-25T13:31:34.768Z,7.69
2023-02-25T13:32:45.958Z,7.72
2023-02-25T13:33:58.358Z,7.85
2023-02-25T13:35:19.220Z,7.70
2023-02-25T13:36:27.293Z,7.76
2023-02-25T13:37:41.469Z,7.57
2023-02-25T13:39:18.727Z,8.08
2023-02-25T13:40:27.094Z,8.09
2023-02-25T13:41:51.289Z,8.18
2023-02-25T13:43:00.962Z,8.39
2023-02-25T13:44:19.650Z,8.34
2023-02-25T13:46:00.530Z,7.90
2023-02-25T13:47:17.780Z,7.89
2023-02-25T13:48:41.771Z,8.16
2023-02-25T13:50:14.853Z,8.12
2023-02-25T13:51:39.726Z,8.31
2023-02-25T13:53:17.946Z,8.39
2023-02-25T13:54:38.276Z,8.59
2023-02-25T13:56:01.275Z,8.41
2023-02-25T13:57:25.155Z,8.44
2023-02-25T13:59:03.300Z,8.67
2023-02-25T14:00:43.624Z,8.65
2023-02-25T14:02:08.775Z,8.78
2023-02-25T14:03:30.548Z,8.76
2023-02-25T14:04:58.002Z,8.69
2023-02-25T14:06:29.083Z,8.64
2023-02-25T14:08:10.158Z,8.45
2023-02-25T14:09:21.855Z,8.28
2023-02-25T14:10:46.819Z,8.37
2023-02-25T14:12:11.719Z,8.35
2023-02-25T14:13:40.865Z,7.99
2023-02-25T14:15:17.510Z,8.48
2023-02-25T14:16:45.301Z,8.27
2023-02-25T14:18:03.743Z,8.37
2023-02-25T14:19:20.227Z,8.34
2023-02-25T14:21:01.344Z,8.14
2023-02-25T14:22:22.813Z,8.15
2023-02-25T14:23:40.982Z,8.01
2023-02-25T14:25:19.684Z,7.90
2023-02-25T14:26:28.886Z,7.95
2023-02-25T14:27:34.065Z,7.89
2023-02-25T14:29:07.580Z,7.76
2023-02-25T14:30:28.189Z,7.86
2023-02-25T14:32:09.435Z,7.58
2023-02-25T14:33:15.280Z,7.47
2023-02-25T14:34:29.771Z,7.50
2023-02-25T14:35:41.160Z,7.63
2023-02-25T14:37:10.041Z,7.88
2023-02-25T14:38:16.100Z,8.23
2023-02-25T14:39:54.257Z,8.47
2023-02-25T14:41:20.015Z,8.61
2023-02-25T14:42:56.664Z,8.13
2023-02-25T14:44:08.056Z,8.31
2023-02-25T14:45:12.476Z,8.49
2023-02-25T14:46:37.399Z,8.47
2023-02-25T14:47:52.860Z,8.31
2023-02-25T14:49:04.426Z,8.03
2023-02-25T14:50:22.666Z,7.97
2023-02-25T14:51:40.474Z,8.12
2023-02-25T14:53:07.122Z,8.00
2023-02-25T14:54:32.906Z,7.86
2023-02-25T14:55:41.707Z,7.97
2023-02-25T14:57:21.289Z,8.14
2023-02-25T14:58:59.042Z,7.97
2023-02-25T15:02:08.008Z,7.96
2023-02-25T15:03:22.841Z,8.14
2023-02-25T15:04:40.436Z,8.21
2023-02-25T15:06:12.247Z,8.01
2023-02-25T15:07:38.223Z,8.02
2023-02-25T15:08:47.770Z,7.87
2023-02-25T15:10:21.628Z,7.78
2023-02-25T15:12:00.922Z,7.75
2023-02-25T15:13:16.719Z,7.58
2023-02-25T15:14:36.566Z,7.32
2023-02-25T15:15:54.197Z,7.22
2023-02-25T15:17:21.992Z,7.23
2023-02-25T15:18:34.060Z,7.10
2023-02-25T15:19:44.144Z,7.10
2023-02-25T15:20:47.247Z,6.80
2023-02-25T15:21:52.209Z,6.76
2023-02-25T15:23:08.127Z,6.70
2023-02-25T15:24:38.564Z,6.48
2023-02-25T15:25:57.205Z,6.41
2023-02-25T15:27:02.946Z,6.32
2023-02-25T15:28:32.320Z,6.26
2023-02-25T15:29:44.751Z,6.35
2023-02-25T15:31:10.247Z,6.28
2023-02-25T15:32:23.116Z,6.30
2023-02-25T15:33:48.180Z,6.41
2023-02-25T15:35:03.120Z,6.36
2023-02-25T15:36:14.371Z,6.40
2023-02-25T15:37:57.634Z,6.42
2023-02-25T15:39:00.650Z,6.33
2023-02-25T15:40:15.340Z,6.32
2023-02-25T15:41:26.792Z,6.24
2023-02-25T15:42:45.687Z,6.27
2023-02-25T15:43:48.488Z,6.16
2023-02-25T15:44:51.271Z,6.12
2023-02-25T15:46:22.753Z,6.15
2023-02-25T15:47:28.021Z,6.23
2023-02-25T15:48:33.704Z,6.09
2023-02-25T15:49:38.569Z,6.14
2023-02-25T15:50:42.171Z,6.05
2023-02-25T15:51:52.937Z,6.05
2023-02-25T15:52:58.706Z,6.05
2023-02-25T15:54:02.162Z,5.95
2023-02-25T15:55:20.313Z,5.95
2023-02-25T15:56:24.987Z,5.95
2023-02-25T15:57:37.594Z,6.04
2023-02-25T15:58:55.058Z,6.13
2023-02-25T15:59:58.191Z,6.10
2023-02-25T16:01:06.329Z,6.12
2023-02-25T16:02:30.666Z,6.04
2023-02-25T16:03:37.374Z,6.01
2023-02-25T16:04:50.340Z,6.04
2023-02-25T16:05:54.973Z,5.96
2023-02-25T16:07:00.249Z,5.99
2023-02-25T16:08:17.193Z,5.91
2023-02-25T16:09:21.027Z,5.83
2023-02-25T16:10:34.764Z,5.75
2023-02-25T16:11:44.152Z,5.78
2023-02-25T16:12:51.122Z,5.76
2023-02-25T16:13:54.151Z,5.74
2023-02-25T16:14:59.888Z,5.73
2023-02-25T16:16:04.253Z,5.78
2023-02-25T16:17:20.312Z,5.67
2023-02-25T16:18:34.455Z,5.69
2023-02-25T16:19:42.080Z,5.61
2023-02-25T16:20:48.356Z,5.56
2023-02-25T16:22:03.826Z,5.64
2023-02-25T16:23:10.761Z,5.58
2023-02-25T16:24:13.990Z,5.57
2023-02-25T16:25:25.951Z,5.61
2023-02-25T16:26:47.002Z,5.56
2023-02-25T16:28:05.930Z,5.58
2023-02-25T16:29:20.417Z,5.58
2023-02-25T16:30:35.278Z,5.44
2023-02-25T16:32:07.432Z,5.41
2023-02-25T16:33:29.042Z,5.43
2023-02-25T16:34:43.307Z,5.47
2023-02-25T16:36:06.880Z,5.41
2023-02-25T16:37:19.481Z,5.38
2023-02-25T16:38:30.508Z,5.45
2023-02-25T16:39:33.241Z,5.49
2023-02-25T16:40:38.841Z,5.47
2023-02-25T16:41:41.598Z,5.51
2023-02-25T16:42:45.767Z,5.57
2023-02-25T16:43:48.576Z,5.63
2023-02-25T16:45:02.241Z,5.56
2023-02-25T16:46:15.630Z,5.27
2023-02-25T16:47:29.314Z,5.21
2023-02-25T16:48:45.918Z,5.07
2023-02-25T16:49:49.917Z,4.97
2023-02-25T16:50:54.352Z,4.95
2023-02-25T16:51:58.129Z,4.90
2023-02-25T16:53:03.316Z,4.87
2023-02-25T16:54:17.626Z,4.93
2023-02-25T16:55:32.246Z,5.10
2023-02-25T16:56:35.924Z,5.11
2023-02-25T16:57:38.550Z,5.01
2023-02-25T16:58:41.179Z,4.95
2023-02-25T16:59:43.659Z,4.95
2023-02-25T17:00:54.990Z,4.86
2023-02-25T17:02:05.907Z,4.84
2023-02-25T17:03:11.021Z,4.77
2023-02-25T17:04:29.137Z,4.68
2023-02-25T17:05:35.085Z,4.50
2023-02-25T17:06:38.223Z,4.45
2023-02-25T17:07:40.525Z,4.42
2023-02-25T17:08:47.786Z,4.33
2023-02-25T17:09:54.591Z,4.26
2023-02-25T17:10:58.693Z,4.30
2023-02-25T17:12:04.055Z,4.25
2023-02-25T17:13:06.563Z,4.22
2023-02-25T17:14:11.572Z,4.13
2023-02-25T17:15:22.245Z,4.07
2023-02-25T17:16:32.138Z,4.08
2023-02-25T17:17:41.136Z,4.06
2023-02-25T17:19:07.148Z,3.87
2023-02-25T17:20:23.462Z,3.89
2023-02-25T17:21:30.589Z,3.78
2023-02-25T17:22:35.241Z,3.55
2023-02-25T17:23:41.151Z,3.26
2023-02-25T17:24:43.531Z,3.32
2023-02-25T17:25:49.164Z,3.48
2023-02-25T17:26:53.382Z,3.26
2023-02-25T17:27:58.952Z,3.08
2023-02-25T17:29:02.561Z,3.21
2023-02-25T17:30:11.628Z,3.18
2023-02-25T17:31:18.287Z,3.02
2023-02-25T17:32:24.046Z,3.04
2023-02-25T17:33:28.235Z,3.18
2023-02-25T17:34:34.967Z,2.97
2023-02-25T17:35:41.440Z,3.12
2023-02-25T17:36:45.221Z,3.22
2023-02-25T17:37:47.487Z,3.32
2023-02-25T17:38:55.375Z,3.38
2023-02-25T17:40:01.451Z,3.26
2023-02-25T17:41:04.298Z,3.36
2023-02-25T17:42:36.186Z,3.31
2023-02-25T17:43:39.346Z,3.35
2023-02-25T17:44:42.524Z,3.02
2023-02-25T17:45:53.331Z,3.22
2023-02-25T17:46:55.723Z,3.29
2023-02-25T17:47:57.951Z,3.33
2023-02-25T17:49:03.170Z,3.32
2023-02-25T17:50:21.039Z,3.37
2023-02-25T17:51:38.631Z,3.49
2023-02-25T17:52:41.086Z,3.27
2023-02-25T17:53:46.363Z,3.31
2023-02-25T17:54:58.448Z,3.33
2023-02-25T17:56:14.854Z,3.39
2023-02-25T17:57:22.108Z,3.54
2023-02-25T17:58:24.823Z,3.33
2023-02-25T17:59:38.854Z,3.28
2023-02-25T18:00:41.239Z,3.12
2023-02-25T18:01:56.470Z,3.31
2023-02-25T18:03:18.602Z,3.03
2023-02-25T18:04:25.159Z,3.10
2023-02-25T18:05:28.171Z,3.06
2023-02-25T18:06:41.179Z,3.08
2023-02-25T18:07:44.933Z,3.09
2023-02-25T18:08:53.690Z,3.16
2023-02-25T18:10:00.905Z,3.33
2023-02-25T18:11:26.250Z,3.29
2023-02-25T18:12:35.440Z,3.44
2023-02-25T18:13:38.567Z,3.45
2023-02-25T18:14:45.618Z,3.38
2023-02-25T18:15:53.242Z,3.43
2023-02-25T18:17:02.918Z,3.46
2023-02-25T18:18:07.551Z,3.31
2023-02-25T18:19:24.422Z,3.32
2023-02-25T18:20:34.382Z,3.20
2023-02-25T18:21:42.582Z,3.13
2023-02-25T18:22:49.348Z,3.09
2023-02-25T18:23:52.318Z,3.12
2023-02-25T18:24:57.029Z,3.12
2023-02-25T18:26:11.427Z,3.16
2023-02-25T18:27:26.135Z,3.13
2023-02-25T18:28:28.681Z,3.13
2023-02-25T18:29:31.540Z,3.15
2023-02-25T18:30:34.045Z,3.04
2023-02-25T18:31:36.490Z,2.83
2023-02-25T18:32:39.339Z,2.92
2023-02-25T18:33:41.901Z,3.00
2023-02-25T18:34:44.224Z,3.05
2023-02-25T18:35:48.263Z,3.14
2023-02-25T18:36:50.722Z,3.10
2023-02-25T18:37:55.932Z,3.14
2023-02-25T18:39:02.822Z,3.19
2023-02-25T18:40:06.948Z,3.22
2023-02-25T18:41:09.306Z,3.18
2023-02-25T18:42:17.110Z,3.24
2023-02-25T18:43:22.549Z,3.25
2023-02-25T18:44:24.922Z,3.25
2023-02-25T18:45:29.328Z,3.26
2023-02-25T18:46:31.614Z,3.29
2023-02-25T18:47:33.837Z,3.33
2023-02-25T18:48:36.213Z,3.30
2023-02-25T18:49:38.462Z,3.42
2023-02-25T18:50:44.294Z,3.42
2023-02-25T18:51:49.072Z,3.33
2023-02-25T18:52:51.293Z,3.32
2023-02-25T18:53:53.527Z,3.32
2023-02-25T18:54:55.827Z,3.28
2023-02-25T18:55:58.264Z,3.30
2023-02-25T18:57:00.570Z,3.30
2023-02-25T18:58:04.651Z,3.25
2023-02-25T18:59:06.974Z,3.25
2023-02-25T19:00:10.268Z,3.25
2023-02-25T19:01:21.027Z,3.20
2023-02-25T19:02:39.693Z,3.19
2023-02-25T19:03:43.714Z,3.12
2023-02-25T19:04:46.007Z,3.12
2023-02-25T19:05:48.322Z,3.10
2023-02-25T19:06:50.574Z,3.06
2023-02-25T19:07:53.440Z,3.05
2023-02-25T19:08:55.668Z,2.98
2023-02-25T19:09:58.134Z,2.90
2023-02-25T19:11:00.349Z,2.92
2023-02-25T19:12:02.787Z,2.92
2023-02-25T19:13:14.638Z,2.90
2023-02-25T19:14:19.788Z,2.87
2023-02-25T19:15:22.020Z,2.91
2023-02-25T19:16:25.164Z,2.91
2023-02-25T19:17:29.215Z,2.84
2023-02-25T19:18:31.582Z,2.80
2023-02-25T19:19:33.858Z,2.73
2023-02-25T19:20:36.064Z,2.71
2023-02-25T19:21:38.377Z,2.74
2023-02-25T19:22:48.648Z,2.69
2023-02-25T19:23:51.808Z,2.71
2023-02-25T19:24:54.147Z,2.68
2023-02-25T19:25:59.980Z,2.62
2023-02-25T19:27:02.282Z,2.65
2023-02-25T19:28:06.436Z,2.69
2023-02-25T19:29:08.638Z,2.63
2023-02-25T19:30:14.663Z,2.66
2023-02-25T19:31:17.986Z,2.77
2023-02-25T19:32:21.275Z,2.76
2023-02-25T19:33:23.602Z,2.80
2023-02-25T19:34:25.877Z,2.79
2023-02-25T19:35:28.922Z,2.83
2023-02-25T19:36:31.165Z,2.80
2023-02-25T19:37:36.808Z,2.94
2023-02-25T19:38:39.098Z,2.86
2023-02-25T19:39:42.336Z,2.86
2023-02-25T19:40:46.359Z,2.85
2023-02-25T19:41:48.885Z,2.92
2023-02-25T19:42:51.984Z,2.89
2023-02-25T19:43:54.478Z,2.86
2023-02-25T19:44:56.738Z,2.88
2023-02-25T19:45:59.512Z,2.96
2023-02-25T19:47:02.692Z,2.92
2023-02-25T19:48:05.020Z,2.83
2023-02-25T19:49:07.285Z,2.87
2023-02-25T19:50:11.582Z,2.87
2023-02-25T19:51:14.184Z,2.77
2023-02-25T19:52:16.840Z,2.76
2023-02-25T19:53:19.348Z,2.83
2023-02-25T19:54:24.549Z,2.86
2023-02-25T19:55:28.593Z,2.69
2023-02-25T19:56:30.827Z,2.72
2023-02-25T19:57:33.613Z,2.72
2023-02-25T19:58:35.803Z,2.77
2023-02-25T19:59:38.050Z,2.72
2023-02-25T20:00:46.058Z,2.75
2023-02-25T20:01:50.737Z,2.50
2023-02-25T20:02:54.482Z,2.62
2023-02-25T20:03:56.731Z,2.70
2023-02-25T20:04:59.313Z,2.73
2023-02-25T20:06:06.912Z,2.53
2023-02-25T20:07:09.252Z,2.50
2023-02-25T20:08:11.728Z,2.59
2023-02-25T20:09:14.161Z,2.53
2023-02-25T20:10:17.198Z,2.52
2023-02-25T20:11:23.335Z,2.48
2023-02-25T20:12:25.663Z,2.48
2023-02-25T20:13:27.933Z,2.41
2023-02-25T20:14:32.797Z,2.29
2023-02-25T20:15:35.032Z,2.04
2023-02-25T20:16:39.623Z,2.09
2023-02-25T20:17:43.331Z,2.07
2023-02-25T20:18:48.883Z,2.11
2023-02-25T20:19:51.140Z,2.12
2023-02-25T20:20:54.402Z,2.13
2023-02-25T20:21:57.320Z,2.12
2023-02-25T20:22:59.812Z,2.12
2023-02-25T20:24:02.572Z,2.10
2023-02-25T20:25:05.791Z,2.09
2023-02-25T20:26:12.586Z,2.10
2023-02-25T20:27:15.106Z,2.12
2023-02-25T20:28:17.385Z,2.11
2023-02-25T20:29:19.775Z,2.14
2023-02-25T20:30:23.039Z,2.14
2023-02-25T20:31:26.770Z,2.17
2023-02-25T20:32:29.850Z,2.11
2023-02-25T20:33:32.377Z,2.09
2023-02-25T20:34:34.665Z,2.15
2023-02-25T20:35:37.124Z,2.20
2023-02-25T20:36:58.814Z,2.24
2023-02-25T20:38:22.598Z,2.20
2023-02-25T20:39:49.540Z,2.14
2023-02-25T20:40:52.719Z,2.14
2023-02-25T20:41:55.435Z,2.20
2023-02-25T20:42:58.203Z,2.08
2023-02-25T20:44:00.799Z,1.89
2023-02-25T20:45:03.904Z,1.93
2023-02-25T20:46:06.607Z,2.05
2023-02-25T20:47:16.982Z,2.22
2023-02-25T20:48:30.952Z,2.13
2023-02-25T20:49:34.107Z,2.26
2023-02-25T20:50:38.387Z,2.10
2023-02-25T20:51:45.957Z,2.06
2023-02-25T20:52:48.354Z,2.00
2023-02-25T20:53:50.878Z,2.04
2023-02-25T20:54:53.948Z,2.13
2023-02-25T20:55:57.584Z,2.05
2023-02-25T20:57:00.497Z,2.06
2023-02-25T20:58:05.378Z,2.05
2023-02-25T20:59:11.965Z,1.96
2023-02-25T21:00:16.602Z,1.99
2023-02-25T21:01:22.169Z,2.03
2023-02-25T21:02:27.300Z,1.99
2023-02-25T21:03:31.428Z,1.93
2023-02-25T21:04:34.413Z,1.95
2023-02-25T21:05:36.721Z,1.99
2023-02-25T21:06:39.297Z,1.91
2023-02-25T21:07:41.672Z,1.88
2023-02-25T21:08:43.915Z,1.83
2023-02-25T21:09:46.283Z,1.78
2023-02-25T21:10:48.580Z,1.78
2023-02-25T21:11:50.907Z,1.75
2023-02-25T21:12:53.277Z,1.79
2023-02-25T21:13:55.522Z,1.80
2023-02-25T21:14:58.884Z,1.77
2023-02-25T21:16:10.125Z,1.76
2023-02-25T21:17:13.626Z,1.76
2023-02-25T21:18:15.979Z,1.74
2023-02-25T21:19:18.252Z,1.78
2023-02-25T21:20:20.583Z,1.70
2023-02-25T21:21:22.826Z,1.68
2023-02-25T21:22:25.546Z,1.65
2023-02-25T21:23:27.955Z,1.67
2023-02-25T21:24:33.458Z,1.68
2023-02-25T21:25:35.748Z,1.60
2023-02-25T21:26:39.250Z,1.53
2023-02-25T21:27:41.743Z,1.53
2023-02-25T21:28:45.820Z,1.43
2023-02-25T21:29:48.132Z,1.50
2023-02-25T21:30:51.857Z,1.55
2023-02-25T21:31:54.179Z,1.63
2023-02-25T21:32:56.760Z,1.66
2023-02-25T21:33:59.967Z,1.70
2023-02-25T21:35:02.373Z,1.64
2023-02-25T21:36:06.070Z,1.53
2023-02-25T21:37:08.536Z,1.58
2023-02-25T21:38:10.871Z,1.57
2023-02-25T21:39:13.115Z,1.57
2023-02-25T21:40:15.767Z,1.56
2023-02-25T21:41:18.035Z,1.57
2023-02-25T21:42:20.248Z,1.62
2023-02-25T21:43:24.015Z,1.61
2023-02-25T21:44:26.811Z,1.50
2023-02-25T21:45:29.273Z,1.56
2023-02-25T21:46:33.949Z,1.62
2023-02-25T21:47:38.004Z,1.58
2023-02-25T21:48:41.469Z,1.57
2023-02-25T21:49:44.893Z,1.56
2023-02-25T21:50:47.590Z,1.55
2023-02-25T21:51:51.116Z,1.43
2023-02-25T21:52:53.380Z,1.47
2023-02-25T21:53:57.342Z,1.46
2023-02-25T21:54:59.580Z,1.49
2023-02-25T21:56:10.676Z,1.47
2023-02-25T21:57:12.970Z,1.45
2023-02-25T21:58:15.769Z,1.49
2023-02-25T21:59:18.768Z,1.40
2023-02-25T22:00:21.574Z,1.35
2023-02-25T22:01:26.947Z,1.43
2023-02-25T22:02:31.449Z,1.33
2023-02-25T22:03:34.942Z,1.28
2023-02-25T22:04:37.290Z,1.34
2023-02-25T22:05:44.723Z,1.31
2023-02-25T22:06:49.058Z,1.30
2023-02-25T22:07:51.560Z,1.38
2023-02-25T22:08:54.829Z,1.27
2023-02-25T22:09:57.608Z,1.22
2023-02-25T22:11:00.124Z,1.21
2023-02-25T22:12:02.362Z,1.21
2023-02-25T22:13:04.626Z,1.26
2023-02-25T22:14:08.487Z,1.29
2023-02-25T22:15:11.136Z,1.27
2023-02-25T22:16:15.023Z,1.30
2023-02-25T22:17:17.285Z,1.26
2023-02-25T22:18:19.689Z,1.22
2023-02-25T22:19:21.934Z,1.28
2023-02-25T22:20:24.197Z,1.21
2023-02-25T22:21:31.968Z,1.22
2023-02-25T22:22:34.356Z,1.22
2023-02-25T22:23:36.607Z,1.15
2023-02-25T22:24:39.075Z,1.30
2023-02-25T22:25:42.294Z,1.23
2023-02-25T22:26:47.270Z,1.23
2023-02-25T22:27:49.454Z,1.16
2023-02-25T22:29:03.354Z,1.11
2023-02-25T22:30:06.248Z,1.29
2023-02-25T22:31:17.096Z,1.21
2023-02-25T22:32:20.360Z,1.21
2023-02-25T22:33:22.654Z,1.22
2023-02-25T22:34:24.920Z,1.17
2023-02-25T22:35:27.143Z,1.19
2023-02-25T22:36:29.509Z,1.19
2023-02-25T22:37:32.553Z,1.16
2023-02-25T22:38:37.882Z,1.18
2023-02-25T22:39:40.189Z,1.19
2023-02-25T22:40:42.372Z,1.14
2023-02-25T22:41:44.644Z,1.12
2023-02-25T22:42:47.068Z,1.09
2023-02-25T22:43:50.167Z,1.06
2023-02-25T22:44:52.540Z,1.03
2023-02-25T22:46:14.894Z,1.01
2023-02-25T22:47:17.201Z,1.05